Time;durP1;ratioP1;P1;durP2;ratioP2;P2;SDS_P1;SDS_P2;PMS_P1;PMS_P2;Temp;Humidity;BMP_temperature;BMP_pressure;BME280_temperature;BME280_humidity;BME280_pressure;Samples;Min_cycle;Max_cycle;Signal;HPM_P1;HPM_P2
2021/05/21 00:00:30;;;;;;;1.52;0.88;;;13.50;90.40;;;;;;5064331;28;20033;-83
2021/05/21 00:02:57;;;;;;;2.10;1.00;;;13.50;90.10;;;;;;5056010;28;20044;-84
2021/05/21 00:05:23;;;;;;;2.35;0.90;;;14.10;90.40;;;;;;5048311;28;20029;-81
2021/05/21 00:07:49;;;;;;;2.50;1.10;;;13.70;90.20;;;;;;5048411;28;20021;-83
2021/05/21 00:10:14;;;;;;;3.45;1.00;;;14.60;90.50;;;;;;5044235;28;20039;-81
2021/05/21 00:12:43;;;;;;;2.08;0.70;;;14.00;90.20;;;;;;5045020;28;20072;-84
2021/05/21 00:15:10;;;;;;;3.25;1.00;;;14.50;90.60;;;;;;5046499;28;20109;-80
2021/05/21 00:17:35;;;;;;;2.65;1.70;;;13.30;90.40;;;;;;5044860;28;20067;-81
2021/05/21 00:20:02;;;;;;;3.78;1.20;;;14.30;90.90;;;;;;5045196;28;20033;-80
2021/05/21 00:22:27;;;;;;;2.97;1.27;;;13.30;90.50;;;;;;5067979;28;20148;-83
2021/05/21 00:24:53;;;;;;;1.65;0.90;;;13.20;90.70;;;;;;5045476;28;20061;-81
2021/05/21 00:27:19;;;;;;;7.10;1.17;;;13.20;90.50;;;;;;5048395;28;20102;-81
2021/05/21 00:29:47;;;;;;;2.78;1.10;;;13.70;91.20;;;;;;5049020;28;20036;-83
2021/05/21 00:32:13;;;;;;;3.40;1.20;;;13.20;91.00;;;;;;5042042;28;20147;-83
2021/05/21 00:34:39;;;;;;;2.22;1.20;;;13.10;91.10;;;;;;5062831;28;20625;-85
2021/05/21 00:37:04;;;;;;;2.55;1.17;;;14.10;91.50;;;;;;5043166;28;20040;-82
2021/05/21 00:39:30;;;;;;;3.53;1.10;;;13.00;91.20;;;;;;5048430;28;20033;-84
2021/05/21 00:41:58;;;;;;;1.30;0.90;;;13.90;91.60;;;;;;5049104;28;20092;-81
2021/05/21 00:44:27;;;;;;;1.67;0.82;;;13.80;91.80;;;;;;5045809;28;20021;-85
2021/05/21 00:46:53;;;;;;;3.70;1.13;;;12.90;91.40;;;;;;5047809;28;20100;-84
2021/05/21 00:49:24;;;;;;;1.17;0.88;;;12.80;91.40;;;;;;5048538;28;20052;-82
2021/05/21 00:51:49;;;;;;;2.97;1.00;;;12.70;91.50;;;;;;5044989;28;20032;-80
2021/05/21 00:54:16;;;;;;;1.90;1.20;;;13.20;91.70;;;;;;5044682;28;20529;-83
2021/05/21 00:56:43;;;;;;;2.95;0.80;;;12.70;91.70;;;;;;5051704;28;20095;-82
2021/05/21 00:59:08;;;;;;;2.78;1.10;;;14.00;91.40;;;;;;5049486;28;21482;-81
2021/05/21 01:01:35;;;;;;;1.92;1.10;;;12.90;90.90;;;;;;5062955;28;20026;-82
2021/05/21 01:04:04;;;;;;;2.78;1.13;;;12.80;90.90;;;;;;5042169;28;20021;-86
2021/05/21 01:06:30;;;;;;;2.80;1.00;;;11.80;90.70;;;;;;5045163;28;20040;-82
2021/05/21 01:08:57;;;;;;;2.53;1.20;;;12.70;91.00;;;;;;5047506;28;20032;-82
2021/05/21 01:11:23;;;;;;;1.05;0.80;;;13.70;91.40;;;;;;5048742;28;20112;-82
2021/05/21 01:13:52;;;;;;;2.33;1.00;;;13.30;91.30;;;;;;5058143;28;20025;-82
2021/05/21 01:16:18;;;;;;;2.47;1.08;;;12.90;91.40;;;;;;5053806;28;20030;-80
2021/05/21 01:18:46;;;;;;;3.45;1.30;;;12.60;91.50;;;;;;5044785;28;20036;-83
2021/05/21 01:21:12;;;;;;;3.13;0.85;;;12.70;91.40;;;;;;5061526;28;20041;-81
2021/05/21 01:23:38;;;;;;;3.70;1.00;;;12.50;91.40;;;;;;5047030;28;20033;-80
2021/05/21 01:26:04;;;;;;;1.38;0.80;;;12.50;91.50;;;;;;5047056;28;20037;-81
2021/05/21 01:28:30;;;;;;;1.98;0.80;;;12.50;91.70;;;;;;5064548;28;20106;-80
2021/05/21 01:30:56;;;;;;;2.13;0.80;;;13.40;91.70;;;;;;5054081;28;20105;-79
2021/05/21 01:33:22;;;;;;;3.35;1.13;;;12.50;91.40;;;;;;5047628;28;20033;-80
2021/05/21 01:35:50;;;;;;;2.15;0.90;;;12.40;91.50;;;;;;5049150;28;20673;-82
2021/05/21 01:38:16;;;;;;;1.48;0.88;;;12.30;91.50;;;;;;5046869;28;20032;-83
2021/05/21 01:40:45;;;;;;;1.50;0.85;;;12.40;91.50;;;;;;5046920;28;20033;-80
2021/05/21 01:43:12;;;;;;;2.17;0.90;;;12.30;91.70;;;;;;5063417;28;20021;-81
2021/05/21 01:45:39;;;;;;;5.57;1.40;;;12.30;91.60;;;;;;5050196;28;20024;-81
2021/05/21 01:48:05;;;;;;;1.40;0.80;;;12.30;91.60;;;;;;5050353;28;20470;-81
2021/05/21 01:50:31;;;;;;;1.73;0.77;;;12.30;91.50;;;;;;5048152;28;20025;-78
2021/05/21 01:52:57;;;;;;;1.55;1.02;;;12.30;91.60;;;;;;5048709;28;20025;-80
2021/05/21 01:55:23;;;;;;;1.42;0.90;;;12.20;91.50;;;;;;5048117;28;20044;-82
2021/05/21 01:57:48;;;;;;;3.53;0.90;;;12.20;91.60;;;;;;5045598;28;20033;-83
2021/05/21 02:00:14;;;;;;;1.83;0.90;;;12.20;91.70;;;;;;5048105;28;20064;-83
2021/05/21 02:02:40;;;;;;;1.55;0.90;;;12.20;91.70;;;;;;5051386;28;20097;-82
2021/05/21 02:05:07;;;;;;;2.35;1.02;;;12.10;91.70;;;;;;5049175;28;20039;-82
2021/05/21 02:07:34;;;;;;;2.90;1.05;;;12.20;91.70;;;;;;5048725;28;20060;-85
2021/05/21 02:10:05;;;;;;;1.55;0.88;;;12.10;91.60;;;;;;5052477;28;20127;-81
2021/05/21 02:12:32;;;;;;;1.30;0.80;;;12.20;91.40;;;;;;5044335;28;20036;-81
2021/05/21 02:15:01;;;;;;;1.88;0.82;;;12.30;91.30;;;;;;5043641;28;20034;-85
2021/05/21 02:17:27;;;;;;;2.13;1.00;;;12.20;91.20;;;;;;5048129;28;20506;-83
2021/05/21 02:19:57;;;;;;;5.75;0.90;;;12.20;91.20;;;;;;5049617;28;20037;-83
2021/05/21 02:22:24;;;;;;;1.25;0.70;;;12.20;91.10;;;;;;5044883;28;20190;-84
2021/05/21 02:24:54;;;;;;;1.88;0.90;;;12.80;91.20;;;;;;5047526;28;20033;-83
2021/05/21 02:27:21;;;;;;;1.40;0.75;;;12.20;91.30;;;;;;5045778;28;20021;-81
2021/05/21 02:29:47;;;;;;;1.60;1.00;;;12.20;91.20;;;;;;5049882;28;20025;-84
2021/05/21 02:32:15;;;;;;;1.80;0.93;;;12.20;91.20;;;;;;5047063;28;20359;-81
2021/05/21 02:34:41;;;;;;;3.00;0.98;;;12.20;91.40;;;;;;5047999;28;20029;-83
2021/05/21 02:37:07;;;;;;;1.98;0.93;;;12.30;90.70;;;;;;5050690;28;20039;-84
2021/05/21 02:39:34;;;;;;;3.58;1.17;;;12.40;90.70;;;;;;5045676;28;20389;-83
2021/05/21 02:42:03;;;;;;;1.25;0.80;;;13.30;91.10;;;;;;5049088;28;20033;-84
2021/05/21 02:44:29;;;;;;;1.42;0.80;;;12.20;90.90;;;;;;5047560;28;20043;-81
2021/05/21 02:46:55;;;;;;;2.08;0.80;;;12.80;91.20;;;;;;5053242;28;20476;-80
2021/05/21 02:49:23;;;;;;;1.42;0.93;;;12.20;90.70;;;;;;5048851;28;20088;-86
2021/05/21 02:51:51;;;;;;;2.35;1.02;;;12.30;90.80;;;;;;5050561;28;20029;-83
2021/05/21 02:54:17;;;;;;;2.28;0.82;;;12.50;90.90;;;;;;5042625;28;20018;-82
2021/05/21 02:56:43;;;;;;;4.97;1.17;;;12.20;90.80;;;;;;5047178;28;20031;-84
2021/05/21 02:59:09;;;;;;;4.38;1.13;;;12.20;91.10;;;;;;5046739;28;20025;-81
2021/05/21 03:01:38;;;;;;;1.42;0.75;;;12.10;90.90;;;;;;5047775;28;20017;-78
2021/05/21 03:04:04;;;;;;;2.50;0.80;;;13.10;91.00;;;;;;5047055;28;20037;-84
2021/05/21 03:06:30;;;;;;;2.08;0.93;;;12.20;90.80;;;;;;5049249;28;20090;-85
2021/05/21 03:08:56;;;;;;;2.15;0.82;;;13.10;91.00;;;;;;5046951;28;20532;-83
2021/05/21 03:11:25;;;;;;;2.00;0.80;;;12.30;90.60;;;;;;5042755;28;20566;-83
2021/05/21 03:13:51;;;;;;;2.58;0.90;;;12.20;90.20;;;;;;5062752;28;20064;-83
2021/05/21 03:16:16;;;;;;;3.28;0.80;;;12.20;90.60;;;;;;5048997;28;20028;-80
2021/05/21 03:18:42;;;;;;;2.25;1.10;;;13.50;90.90;;;;;;5047635;28;20527;-84
2021/05/21 03:21:08;;;;;;;1.63;0.90;;;11.10;90.50;;;;;;5044606;28;20037;-82
2021/05/21 03:23:34;;;;;;;2.35;0.93;;;12.70;91.00;;;;;;5045714;28;20079;-81
2021/05/21 03:26:00;;;;;;;1.83;0.85;;;12.00;90.60;;;;;;5045758;28;20115;-82
2021/05/21 03:28:28;;;;;;;2.28;0.85;;;12.70;90.90;;;;;;5043011;28;20041;-80
2021/05/21 03:30:54;;;;;;;2.88;1.00;;;12.30;90.70;;;;;;5042178;28;20035;-80
2021/05/21 03:33:20;;;;;;;1.50;0.80;;;13.40;91.20;;;;;;5043025;28;20035;-82
2021/05/21 03:35:48;;;;;;;1.50;0.70;;;12.00;90.80;;;;;;5047723;28;20032;-81
2021/05/21 03:38:14;;;;;;;1.45;0.70;;;12.00;90.80;;;;;;5058347;28;20033;-84
2021/05/21 03:40:41;;;;;;;3.25;1.00;;;12.90;91.00;;;;;;5040960;28;20411;-82
2021/05/21 03:43:10;;;;;;;1.92;0.90;;;12.10;90.90;;;;;;5047743;28;20411;-83
2021/05/21 03:45:39;;;;;;;1.50;0.98;;;12.90;91.30;;;;;;5044083;28;20511;-83
2021/05/21 03:48:08;;;;;;;1.55;0.90;;;12.80;91.30;;;;;;5048304;28;20112;-79
2021/05/21 03:50:36;;;;;;;0.82;0.70;;;13.20;91.40;;;;;;5046208;28;20032;-81
2021/05/21 03:53:02;;;;;;;1.75;1.05;;;12.90;91.50;;;;;;5066563;28;20128;-83
2021/05/21 03:55:28;;;;;;;2.25;0.75;;;11.90;91.00;;;;;;5053032;28;20053;-79
2021/05/21 03:57:55;;;;;;;1.35;0.70;;;11.90;91.10;;;;;;5052102;28;20085;-83
2021/05/21 04:00:22;;;;;;;2.20;0.80;;;12.00;90.90;;;;;;5051559;28;20031;-84
2021/05/21 04:02:50;;;;;;;2.08;1.10;;;12.00;91.00;;;;;;5052985;28;20029;-83
2021/05/21 04:05:18;;;;;;;1.40;0.95;;;13.10;91.20;;;;;;5056993;28;20664;-82
2021/05/21 04:07:48;;;;;;;1.30;0.75;;;12.00;91.10;;;;;;5049092;28;20017;-82
2021/05/21 04:10:15;;;;;;;1.00;0.70;;;12.00;91.10;;;;;;5044626;28;20029;-82
2021/05/21 04:12:40;;;;;;;1.58;0.80;;;12.80;91.10;;;;;;5056574;28;20032;-82
2021/05/21 04:15:07;;;;;;;2.45;0.90;;;12.80;91.20;;;;;;5056765;28;20063;-83
2021/05/21 04:17:35;;;;;;;1.88;0.80;;;11.10;90.50;;;;;;5050075;28;20032;-82
2021/05/21 04:20:04;;;;;;;3.08;1.02;;;12.30;91.00;;;;;;5055362;28;20080;-81
2021/05/21 04:22:32;;;;;;;2.28;0.98;;;12.30;91.00;;;;;;5045694;28;20033;-82
2021/05/21 04:24:58;;;;;;;3.13;0.80;;;12.30;90.90;;;;;;5043358;28;20187;-82
2021/05/21 04:27:27;;;;;;;1.45;0.82;;;11.50;90.80;;;;;;5041876;28;20110;-77
2021/05/21 04:29:56;;;;;;;1.95;0.90;;;12.20;91.00;;;;;;5043147;28;20513;-83
2021/05/21 04:32:22;;;;;;;1.00;0.70;;;12.40;91.20;;;;;;5045855;28;20037;-82
2021/05/21 04:34:50;;;;;;;3.03;1.00;;;11.90;91.20;;;;;;5043712;28;20053;-79
2021/05/21 04:37:16;;;;;;;2.10;0.93;;;13.30;91.90;;;;;;5040615;28;20029;-80
2021/05/21 04:39:42;;;;;;;1.92;0.88;;;13.50;91.60;;;;;;5043517;28;20034;-82
2021/05/21 04:42:08;;;;;;;3.88;1.75;;;13.00;91.50;;;;;;5047636;28;20163;-82
2021/05/21 04:44:34;;;;;;;1.88;0.80;;;12.30;91.50;;;;;;5046008;28;20506;-83
2021/05/21 04:47:01;;;;;;;2.30;0.85;;;13.70;92.00;;;;;;5049697;28;20037;-80
2021/05/21 04:49:33;;;;;;;1.80;0.90;;;13.30;91.90;;;;;;5052041;28;20025;-81
2021/05/21 04:52:00;;;;;;;2.50;0.95;;;12.20;91.70;;;;;;5048287;28;20450;-80
2021/05/21 04:54:26;;;;;;;3.55;0.90;;;13.00;91.80;;;;;;5046418;28;20089;-80
2021/05/21 04:56:52;;;;;;;1.60;0.90;;;12.30;91.60;;;;;;5049713;28;20036;-79
2021/05/21 04:59:19;;;;;;;3.42;0.90;;;12.30;91.70;;;;;;5045526;28;20084;-83
2021/05/21 05:01:44;;;;;;;4.63;1.00;;;12.40;91.60;;;;;;5043405;28;21029;-83
2021/05/21 05:04:10;;;;;;;3.22;1.00;;;12.40;91.50;;;;;;5041533;28;20071;-79
2021/05/21 05:06:36;;;;;;;3.15;0.90;;;12.40;91.50;;;;;;5041298;28;20026;-83
2021/05/21 05:09:02;;;;;;;1.35;0.90;;;12.50;91.50;;;;;;5046120;28;20021;-82
2021/05/21 05:11:27;;;;;;;2.25;1.00;;;12.50;91.40;;;;;;5051481;28;20030;-81
2021/05/21 05:13:53;;;;;;;1.45;0.82;;;12.50;91.50;;;;;;5061383;28;20021;-82
2021/05/21 05:16:18;;;;;;;2.53;0.90;;;12.50;91.50;;;;;;5049021;28;20495;-82
2021/05/21 05:18:44;;;;;;;1.45;0.90;;;12.60;91.40;;;;;;5054256;28;20039;-79
2021/05/21 05:21:10;;;;;;;1.27;0.75;;;12.60;91.50;;;;;;5049806;28;20025;-79
2021/05/21 05:23:35;;;;;;;2.17;1.02;;;12.70;91.50;;;;;;5046269;28;20071;-79
2021/05/21 05:26:01;;;;;;;2.90;1.00;;;12.70;91.30;;;;;;5045767;28;20031;-79
2021/05/21 05:28:27;;;;;;;2.53;1.00;;;12.90;91.30;;;;;;5028445;28;20029;-81
2021/05/21 05:30:53;;;;;;;1.65;0.82;;;13.00;91.20;;;;;;5042533;28;20021;-80
2021/05/21 05:33:18;;;;;;;2.55;1.00;;;13.00;91.20;;;;;;5040596;28;20037;-81
2021/05/21 05:35:50;;;;;;;2.13;1.20;;;13.00;91.20;;;;;;5039304;28;20028;-79
2021/05/21 05:38:16;;;;;;;3.45;0.90;;;13.20;91.20;;;;;;5037771;28;20037;-79
2021/05/21 05:40:41;;;;;;;2.47;0.75;;;13.10;91.10;;;;;;5042316;28;20033;-80
2021/05/21 05:43:07;;;;;;;2.28;1.00;;;13.10;91.10;;;;;;5049184;28;20108;-78
2021/05/21 05:45:33;;;;;;;2.40;1.23;;;13.10;91.10;;;;;;5040511;28;20491;-79
2021/05/21 05:47:58;;;;;;;3.30;1.15;;;13.20;91.30;;;;;;5047024;28;20029;-80
2021/05/21 05:50:24;;;;;;;2.33;1.10;;;13.30;91.20;;;;;;5041180;28;20377;-77
2021/05/21 05:52:50;;;;;;;2.08;0.85;;;13.30;91.20;;;;;;5040080;28;20472;-79
2021/05/21 05:55:15;;;;;;;3.55;1.10;;;13.30;91.30;;;;;;5050150;28;20373;-81
2021/05/21 05:57:41;;;;;;;2.25;1.02;;;13.20;91.20;;;;;;5044816;28;20091;-84
2021/05/21 06:00:07;;;;;;;2.60;1.00;;;13.40;91.20;;;;;;5044417;28;20036;-83
2021/05/21 06:02:33;;;;;;;2.20;1.00;;;13.40;91.20;;;;;;5040567;28;20032;-85
2021/05/21 06:05:02;;;;;;;1.40;0.90;;;13.40;91.20;;;;;;5044283;28;20024;-79
2021/05/21 06:07:28;;;;;;;2.70;1.00;;;13.40;91.20;;;;;;5037219;28;22551;-82
2021/05/21 06:09:54;;;;;;;1.83;0.90;;;13.50;91.30;;;;;;5040844;28;20036;-81
2021/05/21 06:12:19;;;;;;;4.10;1.30;;;13.50;91.20;;;;;;5044560;28;20036;-80
2021/05/21 06:14:45;;;;;;;2.42;1.00;;;13.60;91.10;;;;;;5043659;28;20071;-82
2021/05/21 06:17:11;;;;;;;1.85;1.20;;;13.70;91.00;;;;;;5040847;28;20033;-82
2021/05/21 06:19:36;;;;;;;2.53;1.00;;;13.70;90.90;;;;;;5043315;28;20025;-81
2021/05/21 06:22:03;;;;;;;3.40;1.13;;;13.80;90.80;;;;;;5044138;28;20029;-82
2021/05/21 06:24:29;;;;;;;1.73;0.95;;;13.80;90.70;;;;;;5037506;28;20029;-80
2021/05/21 06:29:42;;;;;;;3.33;1.10;;;14.00;90.70;;;;;;5043078;28;20048;-80
2021/05/21 06:32:07;;;;;;;3.15;1.02;;;14.00;90.20;;;;;;5040558;28;20494;-81
2021/05/21 06:34:33;;;;;;;1.67;1.00;;;14.00;90.20;;;;;;5047730;28;20030;-79
2021/05/21 06:36:59;;;;;;;2.10;0.90;;;14.00;90.10;;;;;;5044473;28;20054;-81
2021/05/21 06:39:24;;;;;;;6.10;1.00;;;14.10;90.20;;;;;;5040510;28;20040;-80
2021/05/21 06:41:50;;;;;;;4.15;1.27;;;14.30;89.90;;;;;;5041356;28;20021;-82
2021/05/21 06:44:16;;;;;;;1.40;0.80;;;14.20;90.20;;;;;;5045044;28;20395;-82
2021/05/21 06:46:42;;;;;;;1.80;0.80;;;14.00;90.40;;;;;;5039699;28;20105;-77
2021/05/21 06:49:11;;;;;;;6.75;1.27;;;14.00;90.60;;;;;;5041230;28;20040;-80
2021/05/21 06:51:37;;;;;;;5.55;1.23;;;14.00;90.70;;;;;;5042707;28;20388;-82
2021/05/21 06:54:03;;;;;;;1.38;0.80;;;14.10;90.90;;;;;;5043595;28;20056;-82
2021/05/21 06:56:29;;;;;;;3.42;1.40;;;14.00;90.90;;;;;;5043116;28;20083;-83
2021/05/21 06:58:56;;;;;;;2.58;0.90;;;14.00;91.20;;;;;;5062772;28;20392;-83
2021/05/21 07:01:21;;;;;;;3.10;1.00;;;14.10;91.10;;;;;;5041806;28;20140;-84
2021/05/21 07:03:47;;;;;;;3.55;1.35;;;14.10;91.20;;;;;;5043394;28;20049;-83
2021/05/21 07:06:21;;;;;;;4.18;1.10;;;14.20;91.30;;;;;;5063454;23;20041;-85
2021/05/21 07:08:47;;;;;;;2.88;1.15;;;14.10;91.50;;;;;;5069984;28;20024;-83
2021/05/21 07:11:13;;;;;;;2.90;1.10;;;14.10;91.70;;;;;;5077973;28;20119;-87
2021/05/21 07:13:38;;;;;;;6.43;1.30;;;14.10;91.90;;;;;;5064565;28;20447;-84
2021/05/21 07:16:04;;;;;;;3.42;0.85;;;14.20;91.90;;;;;;5065813;28;20039;-86
2021/05/21 07:18:30;;;;;;;3.80;0.90;;;14.00;92.00;;;;;;5066087;28;20042;-86
2021/05/21 07:21:01;;;;;;;1.38;0.90;;;14.10;92.20;;;;;;5065796;28;20025;-85
2021/05/21 07:23:27;;;;;;;3.63;1.05;;;14.20;91.90;;;;;;5061531;28;20033;-82
2021/05/21 07:26:35;;;;;;;4.20;1.20;;;14.10;92.10;;;;;;5096221;22;20047;-86
2021/05/21 07:29:41;;;;;;;3.85;1.42;;;14.00;92.30;;;;;;5044550;28;20491;-83
2021/05/21 07:39:16;;;;;;;4.97;1.33;;;13.90;93.10;;;;;;5005733;28;20041;-82
2021/05/21 07:42:45;;;;;;;5.85;1.70;;;14.30;93.00;;;;;;4994820;28;20044;-82
2021/05/21 07:45:16;;;;;;;5.22;1.40;;;14.00;93.30;;;;;;4910766;29;20040;-80
2021/05/21 07:48:02;;;;;;;6.03;2.25;;;14.10;92.80;;;;;;4925306;28;20036;-85
2021/05/21 07:50:47;;;;;;;5.18;1.13;;;13.30;92.10;;;;;;4995421;28;20044;-81
2021/05/21 07:53:33;;;;;;;2.95;1.20;;;14.10;92.50;;;;;;5035478;28;20550;-79
2021/05/21 07:56:20;;;;;;;9.00;1.90;;;15.40;92.80;;;;;;5041057;28;20032;-82
2021/05/21 07:59:09;;;;;;;7.40;1.40;;;14.60;92.00;;;;;;5030914;28;20045;-82
2021/05/21 08:02:14;;;;;;;7.28;1.77;;;14.50;92.00;;;;;;5037858;28;20033;-81
2021/05/21 08:04:42;;;;;;;9.23;2.33;;;14.60;91.60;;;;;;5013605;28;20041;-80
2021/05/21 08:07:27;;;;;;;8.80;2.75;;;14.90;91.70;;;;;;5046597;28;20032;-83
2021/05/21 08:09:55;;;;;;;7.15;1.30;;;14.90;91.20;;;;;;5041335;28;20059;-81
2021/05/21 08:12:47;;;;;;;7.32;2.00;;;15.00;90.90;;;;;;5037943;28;20479;-80
2021/05/21 08:15:36;;;;;;;6.78;1.90;;;15.20;90.50;;;;;;5043291;28;20024;-81
2021/05/21 08:21:29;;;;;;;6.30;1.20;;;15.30;90.30;;;;;;5049572;28;20024;-84
2021/05/21 08:27:23;;;;;;;3.67;1.20;;;15.30;90.30;;;;;;5052466;28;20508;-83
2021/05/21 08:30:29;;;;;;;4.80;1.33;;;15.50;88.30;;;;;;5047914;28;20044;-81
2021/05/21 08:33:01;;;;;;;5.93;1.40;;;16.40;88.70;;;;;;5055454;28;20226;-82
2021/05/21 08:35:27;;;;;;;7.50;1.92;;;15.80;88.10;;;;;;5050268;28;20032;-83
2021/05/21 08:38:17;;;;;;;8.73;2.10;;;15.20;88.70;;;;;;5052787;28;20399;-79
2021/05/21 08:40:57;;;;;;;6.65;1.30;;;15.00;88.10;;;;;;5047000;28;20025;-79
2021/05/21 08:43:44;;;;;;;3.83;1.40;;;15.40;87.40;;;;;;5051253;28;20086;-84
2021/05/21 08:46:21;;;;;;;4.30;1.23;;;16.00;88.00;;;;;;5054903;28;20035;-83
2021/05/21 08:49:09;;;;;;;;;;;;;;;;;;;;;
2021/05/21 08:51:35;;;;;;;9.30;2.03;;;15.70;87.40;;;;;;5053426;28;20560;-83
2021/05/21 08:54:02;;;;;;;6.78;1.90;;;15.90;86.10;;;;;;5048382;28;20116;-81
2021/05/21 08:56:28;;;;;;;10.60;2.47;;;16.00;85.70;;;;;;5048634;28;20143;-78
2021/05/21 08:58:55;;;;;;;7.28;1.58;;;16.30;85.60;;;;;;5051417;28;20052;-85
2021/05/21 09:01:24;;;;;;;5.47;1.23;;;15.90;83.90;;;;;;5047977;28;20040;-85
2021/05/21 09:03:57;;;;;;;17.13;2.40;;;16.00;83.40;;;;;;5051133;28;20053;-84
2021/05/21 09:06:23;;;;;;;7.00;1.80;;;16.20;83.30;;;;;;5050699;28;20066;-83
2021/05/21 09:08:54;;;;;;;6.78;1.52;;;16.50;82.70;;;;;;5063771;28;20034;-80
2021/05/21 09:11:27;;;;;;;4.90;1.23;;;16.60;81.20;;;;;;5046709;28;20014;-80
2021/05/21 09:14:18;;;;;;;3.67;1.05;;;16.60;80.90;;;;;;5050731;28;20033;-85
2021/05/21 09:16:45;;;;;;;5.10;1.60;;;16.60;79.90;;;;;;5048593;28;20045;-86
2021/05/21 09:19:15;;;;;;;4.45;1.58;;;16.40;80.40;;;;;;5063993;28;20384;-84
2021/05/21 09:21:52;;;;;;;5.25;1.63;;;16.40;81.50;;;;;;5053658;28;20040;-80
2021/05/21 09:24:22;;;;;;;4.43;1.25;;;16.50;80.40;;;;;;5055087;28;20381;-82
2021/05/21 09:26:50;;;;;;;8.82;1.63;;;16.50;80.20;;;;;;5061672;28;20426;-83
2021/05/21 09:29:30;;;;;;;6.78;1.40;;;16.80;80.00;;;;;;5055323;28;20468;-80
2021/05/21 09:31:56;;;;;;;5.97;1.23;;;17.10;79.50;;;;;;5055291;28;20044;-83
2021/05/21 09:34:34;;;;;;;9.90;1.90;;;17.10;78.20;;;;;;5057731;28;20033;-84
2021/05/21 09:37:00;;;;;;;6.28;1.65;;;17.20;77.20;;;;;;5054362;28;20037;-81
2021/05/21 09:39:26;;;;;;;4.63;1.70;;;17.20;75.70;;;;;;5052407;28;20028;-83
2021/05/21 09:41:54;;;;;;;4.68;1.20;;;17.10;73.70;;;;;;5054148;28;20025;-81
2021/05/21 09:44:21;;;;;;;6.53;1.77;;;17.00;73.50;;;;;;5048347;28;20037;-82
2021/05/21 09:46:49;;;;;;;6.63;1.35;;;17.00;73.40;;;;;;5083459;28;20484;-82
2021/05/21 09:49:35;;;;;;;5.80;1.38;;;16.90;73.90;;;;;;5039136;28;20025;-85
2021/05/21 09:52:03;;;;;;;5.22;1.65;;;17.10;73.60;;;;;;5039855;28;20039;-83
2021/05/21 09:54:47;;;;;;;5.97;1.30;;;17.10;73.10;;;;;;5039050;28;20443;-79
2021/05/21 09:57:13;;;;;;;3.50;1.10;;;17.30;73.10;;;;;;5043230;28;20092;-81
2021/05/21 09:59:43;;;;;;;4.57;1.30;;;17.10;71.00;;;;;;5042457;28;20156;-82
2021/05/21 10:02:20;;;;;;;5.20;1.60;;;16.90;72.00;;;;;;5046384;28;20392;-83
2021/05/21 10:04:46;;;;;;;10.32;1.98;;;17.20;71.40;;;;;;5041343;28;20055;-81
2021/05/21 10:07:13;;;;;;;5.10;1.40;;;17.40;70.80;;;;;;5046575;28;20017;-82
2021/05/21 10:09:40;;;;;;;2.85;0.95;;;17.20;70.20;;;;;;5042962;28;20033;-81
2021/05/21 10:12:06;;;;;;;4.00;1.27;;;17.30;70.00;;;;;;5039415;28;20025;-82
2021/05/21 10:14:32;;;;;;;6.75;1.50;;;17.20;70.70;;;;;;5041730;28;20025;-81
2021/05/21 10:16:59;;;;;;;6.13;1.40;;;17.40;70.80;;;;;;5042608;28;20028;-82
2021/05/21 10:19:26;;;;;;;2.58;0.90;;;17.50;69.80;;;;;;5042285;28;20025;-81
2021/05/21 10:21:53;;;;;;;4.25;0.90;;;17.60;67.70;;;;;;5041690;28;20021;-81
2021/05/21 10:24:20;;;;;;;3.42;1.02;;;17.50;67.00;;;;;;5039293;28;20103;-83
2021/05/21 10:26:52;;;;;;;7.30;1.23;;;17.30;67.20;;;;;;5025651;28;20044;-84
2021/05/21 10:29:22;;;;;;;5.13;1.73;;;17.50;67.00;;;;;;5036478;28;20025;-83
2021/05/21 10:31:51;;;;;;;6.13;1.45;;;17.20;66.30;;;;;;5026099;28;20395;-84
2021/05/21 10:34:20;;;;;;;2.80;1.27;;;17.20;66.90;;;;;;5046098;28;20484;-82
2021/05/21 10:36:47;;;;;;;2.45;1.13;;;17.20;67.10;;;;;;5046362;28;20029;-83
2021/05/21 10:39:16;;;;;;;6.60;1.38;;;17.40;67.20;;;;;;5042943;28;20029;-85
2021/05/21 10:42:00;;;;;;;3.30;1.02;;;17.10;67.40;;;;;;5047646;28;20059;-84
2021/05/21 10:44:37;;;;;;;5.20;1.25;;;16.80;67.50;;;;;;5044912;28;20156;-83
2021/05/21 10:47:17;;;;;;;6.82;1.17;;;16.60;68.90;;;;;;5039924;28;20580;-82
2021/05/21 10:50:03;;;;;;;3.58;1.30;;;16.70;68.90;;;;;;5043175;28;20057;-82
2021/05/21 10:52:56;;;;;;;5.50;1.75;;;17.00;68.50;;;;;;5063945;28;20563;-82
2021/05/21 10:55:40;;;;;;;5.10;1.25;;;17.10;68.30;;;;;;4993090;28;20047;-84
2021/05/21 10:58:06;;;;;;;4.25;1.20;;;17.10;68.50;;;;;;5032000;28;20063;-82
2021/05/21 11:00:34;;;;;;;7.20;1.27;;;17.00;68.60;;;;;;5036648;28;20088;-83
2021/05/21 11:03:00;;;;;;;6.05;2.20;;;16.90;69.00;;;;;;5040067;28;20017;-83
2021/05/21 11:05:37;;;;;;;4.65;1.17;;;16.90;69.00;;;;;;5036983;28;20029;-82
2021/05/21 11:08:12;;;;;;;4.93;1.05;;;16.90;69.20;;;;;;5040090;28;20119;-83
2021/05/21 11:10:37;;;;;;;7.13;1.48;;;17.00;69.80;;;;;;5036582;28;20108;-83
2021/05/21 11:13:14;;;;;;;7.95;1.55;;;17.00;69.80;;;;;;5033576;28;20124;-81
2021/05/21 11:15:47;;;;;;;4.47;1.20;;;17.20;69.30;;;;;;5052948;28;20068;-81
2021/05/21 11:18:16;;;;;;;5.43;1.02;;;17.20;69.10;;;;;;5048242;28;20021;-82
2021/05/21 11:21:08;;;;;;;4.45;1.00;;;17.10;68.40;;;;;;5047894;28;20028;-81
2021/05/21 11:23:39;;;;;;;5.40;1.63;;;17.10;68.70;;;;;;5046075;28;20032;-82
2021/05/21 11:26:22;;;;;;;4.28;1.42;;;17.30;68.90;;;;;;5038789;28;20041;-81
2021/05/21 11:28:58;;;;;;;3.63;1.13;;;17.40;68.20;;;;;;5043653;28;20601;-79
2021/05/21 11:31:31;;;;;;;7.75;1.48;;;17.40;68.20;;;;;;5035421;28;20033;-81
2021/05/21 11:34:00;;;;;;;8.68;1.67;;;17.50;68.40;;;;;;5059150;28;20030;-81
2021/05/21 11:36:27;;;;;;;4.78;1.27;;;17.40;69.10;;;;;;5040834;28;20036;-81
2021/05/21 11:38:53;;;;;;;3.55;1.40;;;17.40;69.90;;;;;;5044862;28;20025;-81
2021/05/21 11:41:31;;;;;;;7.18;1.40;;;17.40;70.20;;;;;;5045344;28;20029;-84
2021/05/21 11:44:02;;;;;;;5.85;1.40;;;17.50;68.30;;;;;;5057495;28;20041;-83
2021/05/21 11:46:28;;;;;;;6.05;1.58;;;17.50;68.20;;;;;;5052683;28;20018;-82
2021/05/21 11:48:53;;;;;;;5.07;1.40;;;17.50;68.80;;;;;;5047082;28;20028;-82
2021/05/21 11:51:25;;;;;;;7.43;1.10;;;17.20;67.70;;;;;;5047218;28;20029;-82
2021/05/21 11:53:53;;;;;;;3.47;1.20;;;17.20;68.00;;;;;;5044773;28;20029;-82
2021/05/21 11:56:33;;;;;;;5.93;2.13;;;16.90;68.80;;;;;;5044261;28;20025;-82
2021/05/21 11:59:09;;;;;;;3.42;1.10;;;17.10;69.20;;;;;;5076671;28;20034;-84
2021/05/21 12:01:36;;;;;;;5.93;1.25;;;17.20;68.70;;;;;;5047568;28;20032;-81
2021/05/21 12:04:11;;;;;;;6.68;1.50;;;17.30;65.30;;;;;;5042136;28;20060;-79
2021/05/21 12:06:39;;;;;;;4.68;1.38;;;17.30;64.80;;;;;;5041690;28;20526;-80
2021/05/21 12:09:07;;;;;;;10.07;1.25;;;17.10;65.00;;;;;;5045105;28;20135;-81
2021/05/21 12:11:33;;;;;;;7.03;1.42;;;17.10;64.60;;;;;;5039121;28;20245;-82
2021/05/21 12:14:13;;;;;;;2.40;1.02;;;17.20;64.70;;;;;;5060183;28;20049;-82
2021/05/21 12:16:41;;;;;;;6.37;1.70;;;17.30;63.60;;;;;;5037190;28;20135;-81
2021/05/21 12:19:08;;;;;;;5.30;1.40;;;17.20;63.30;;;;;;5037368;28;20279;-79
2021/05/21 12:21:38;;;;;;;5.60;1.40;;;17.20;63.20;;;;;;5040528;28;20638;-82
2021/05/21 12:24:05;;;;;;;9.55;1.52;;;17.30;62.50;;;;;;5039105;28;20029;-80
2021/05/21 12:26:33;;;;;;;7.88;1.52;;;17.50;62.80;;;;;;5039713;28;20036;-82
2021/05/21 12:29:00;;;;;;;7.90;1.48;;;17.50;62.70;;;;;;5046655;28;20093;-80
2021/05/21 12:31:29;;;;;;;4.25;1.08;;;17.50;62.40;;;;;;5051372;28;20119;-80
2021/05/21 12:33:59;;;;;;;5.82;1.60;;;17.40;63.10;;;;;;5046717;28;20033;-79
2021/05/21 12:36:31;;;;;;;5.40;1.40;;;17.20;63.60;;;;;;5053337;28;20033;-77
2021/05/21 12:39:09;;;;;;;7.65;1.30;;;17.10;63.80;;;;;;5041522;28;20033;-82
2021/05/21 12:41:40;;;;;;;7.05;1.70;;;17.00;64.90;;;;;;5035537;28;20033;-83
2021/05/21 12:44:16;;;;;;;7.90;1.40;;;16.90;65.20;;;;;;5069130;28;20099;-80
2021/05/21 12:46:51;;;;;;;4.55;1.20;;;17.10;65.40;;;;;;5047200;28;20021;-79
2021/05/21 12:49:27;;;;;;;9.45;1.50;;;17.10;64.90;;;;;;5047700;28;20041;-81
2021/05/21 12:52:02;;;;;;;7.45;1.95;;;17.20;64.90;;;;;;5045342;28;20096;-80
2021/05/21 12:54:41;;;;;;;9.55;1.88;;;17.20;65.00;;;;;;5048167;28;20034;-81
2021/05/21 12:57:07;;;;;;;10.25;1.83;;;17.00;66.40;;;;;;5043788;28;20029;-82
2021/05/21 12:59:39;;;;;;;6.97;1.73;;;17.20;66.10;;;;;;5043333;28;20559;-83
2021/05/21 13:02:09;;;;;;;5.22;1.67;;;17.10;66.40;;;;;;5040716;28;20052;-82
2021/05/21 13:04:35;;;;;;;7.28;1.73;;;17.00;67.10;;;;;;5027539;28;20033;-80
2021/05/21 13:07:01;;;;;;;6.15;1.75;;;16.90;67.10;;;;;;5052547;28;20067;-81
2021/05/21 13:09:33;;;;;;;7.18;1.85;;;17.00;67.70;;;;;;5053433;28;20055;-81
2021/05/21 13:12:48;;;;;;;8.27;1.95;;;16.80;68.70;;;;;;5047529;28;20399;-80
2021/05/21 13:16:05;;;;;;;8.85;2.20;;;17.00;68.70;;;;;;5039988;28;20041;-79
2021/05/21 13:19:34;;;;;;;;;;;;;;;;;;;;;